Time;durP1;ratioP1;P1;durP2;ratioP2;P2;SDS_P1;SDS_P2;PMS_P1;PMS_P2;Temp;Humidity;BMP_temperature;BMP_pressure;BME280_temperature;BME280_humidity;BME280_pressure;Samples;Min_cycle;Max_cycle;Signal;HPM_P1;HPM_P2
2024/01/21 00:01:00;;;;;;;3.93;1.63;;;;;;;;;;5261195;28;20024;-72
2024/01/21 00:03:31;;;;;;;3.57;1.57;;;;;;;;;;5261080;28;20042;-72
2024/01/21 00:06:03;;;;;;;3.43;1.70;;;;;;;;;;5260445;28;20013;-71
2024/01/21 00:08:34;;;;;;;3.87;2.10;;;;;;;;;;5261126;28;20017;-71
2024/01/21 00:11:07;;;;;;;4.40;1.90;;;;;;;;;;5260932;28;20023;-71
2024/01/21 00:13:38;;;;;;;4.60;1.67;;;;;;;;;;5260188;28;20017;-71
2024/01/21 00:16:10;;;;;;;4.40;2.03;;;;;;;;;;5260866;28;20044;-71
2024/01/21 00:18:41;;;;;;;3.93;1.87;;;;;;;;;;5261094;28;20025;-71
2024/01/21 00:21:12;;;;;;;3.67;1.83;;;;;;;;;;5259987;28;20023;-71
2024/01/21 00:23:46;;;;;;;3.73;1.50;;;;;;;;;;5260632;28;20025;-72
2024/01/21 00:26:17;;;;;;;4.97;1.93;;;;;;;;;;5259904;28;20486;-71
2024/01/21 00:28:48;;;;;;;4.87;1.40;;;;;;;;;;5260728;28;20025;-71
2024/01/21 00:31:19;;;;;;;5.27;1.93;;;;;;;;;;5261004;28;20436;-72
2024/01/21 00:33:50;;;;;;;4.50;2.17;;;;;;;;;;5260077;28;20025;-71
2024/01/21 00:36:22;;;;;;;3.77;1.90;;;;;;;;;;5262380;28;20017;-72
2024/01/21 00:38:53;;;;;;;4.27;1.90;;;;;;;;;;5265304;28;20040;-73
2024/01/21 00:41:24;;;;;;;4.10;2.07;;;;;;;;;;5264039;28;20092;-72
2024/01/21 00:43:55;;;;;;;5.50;2.40;;;;;;;;;;5265286;28;20025;-73
2024/01/21 00:46:26;;;;;;;4.43;1.70;;;;;;;;;;5264645;28;20112;-73
2024/01/21 00:48:59;;;;;;;3.87;2.10;;;;;;;;;;5264685;28;20017;-73
2024/01/21 00:51:30;;;;;;;3.67;1.87;;;;;;;;;;5264492;28;20061;-73
2024/01/21 00:54:01;;;;;;;4.53;2.20;;;;;;;;;;5264895;28;20345;-72
2024/01/21 00:56:32;;;;;;;3.97;1.80;;;;;;;;;;5264016;28;20017;-72
2024/01/21 00:59:04;;;;;;;5.17;2.27;;;;;;;;;;5264839;28;20025;-72
2024/01/21 01:01:37;;;;;;;3.53;1.83;;;;;;;;;;5263735;28;20025;-73
2024/01/21 01:04:09;;;;;;;4.30;2.27;;;;;;;;;;5264413;28;20380;-73
2024/01/21 01:06:40;;;;;;;5.57;2.67;;;;;;;;;;5264580;28;20021;-73
2024/01/21 01:09:11;;;;;;;4.03;2.10;;;;;;;;;;5263643;28;20029;-73
2024/01/21 01:11:42;;;;;;;4.50;2.43;;;;;;;;;;5264507;28;20093;-73
2024/01/21 01:14:14;;;;;;;6.07;3.05;;;;;;;;;;5264307;28;20028;-72
2024/01/21 01:16:45;;;;;;;6.07;2.97;;;;;;;;;;5263569;28;20013;-72
2024/01/21 01:19:16;;;;;;;6.27;2.87;;;;;;;;;;5264490;28;20464;-73
2024/01/21 01:21:47;;;;;;;5.40;2.53;;;;;;;;;;5264137;28;20021;-72
2024/01/21 01:24:19;;;;;;;5.03;2.23;;;;;;;;;;5263394;28;20435;-72
2024/01/21 01:26:51;;;;;;;4.97;2.30;;;;;;;;;;5264053;28;20389;-73
2024/01/21 01:29:22;;;;;;;6.13;2.70;;;;;;;;;;5263379;28;20024;-73
2024/01/21 01:31:53;;;;;;;5.90;3.10;;;;;;;;;;5264600;28;20033;-73
2024/01/21 01:34:24;;;;;;;4.85;2.20;;;;;;;;;;5263743;28;20100;-72
2024/01/21 01:36:55;;;;;;;5.30;2.00;;;;;;;;;;5263505;28;20036;-72
2024/01/21 01:39:26;;;;;;;4.23;2.27;;;;;;;;;;5263449;28;20092;-73
2024/01/21 01:41:57;;;;;;;4.83;2.30;;;;;;;;;;5264002;28;20032;-72
2024/01/21 01:44:29;;;;;;;5.23;2.53;;;;;;;;;;5263085;28;20060;-73
2024/01/21 01:47:00;;;;;;;6.30;2.30;;;;;;;;;;5263679;28;20418;-73
2024/01/21 01:49:31;;;;;;;5.03;2.40;;;;;;;;;;5263690;28;20036;-72
2024/01/21 01:52:03;;;;;;;4.97;2.30;;;;;;;;;;5262660;28;20052;-73
2024/01/21 01:54:35;;;;;;;4.13;1.83;;;;;;;;;;5263447;28;20021;-72
2024/01/21 01:57:07;;;;;;;4.03;1.60;;;;;;;;;;5263545;28;20108;-72
2024/01/21 01:59:39;;;;;;;4.07;1.90;;;;;;;;;;5262680;28;20142;-73
2024/01/21 02:02:10;;;;;;;4.97;1.97;;;;;;;;;;5263471;28;20025;-72
2024/01/21 02:04:41;;;;;;;3.90;2.13;;;;;;;;;;5262426;28;20033;-72
2024/01/21 02:07:12;;;;;;;4.77;1.60;;;;;;;;;;5263335;28;20660;-72
2024/01/21 02:09:43;;;;;;;4.63;1.67;;;;;;;;;;5263337;28;20367;-72
2024/01/21 02:12:17;;;;;;;4.13;1.60;;;;;;;;;;5262441;28;20020;-72
2024/01/21 02:14:48;;;;;;;5.37;1.80;;;;;;;;;;5262977;28;20100;-72
2024/01/21 02:17:20;;;;;;;3.20;1.40;;;;;;;;;;5263418;28;20096;-72
2024/01/21 02:19:51;;;;;;;4.53;1.60;;;;;;;;;;5262341;28;20031;-72
2024/01/21 02:22:23;;;;;;;3.60;1.47;;;;;;;;;;5262760;28;20464;-73
2024/01/21 02:24:54;;;;;;;4.60;1.33;;;;;;;;;;5263118;28;20372;-73
2024/01/21 02:27:26;;;;;;;2.83;1.33;;;;;;;;;;5261728;28;20021;-72
2024/01/21 02:29:57;;;;;;;4.00;1.73;;;;;;;;;;5263180;28;20021;-72
2024/01/21 02:32:28;;;;;;;3.80;1.57;;;;;;;;;;5262732;28;20146;-72
2024/01/21 02:34:59;;;;;;;3.13;1.30;;;;;;;;;;5262009;28;20024;-72
2024/01/21 02:37:30;;;;;;;2.30;1.00;;;;;;;;;;5262764;28;20576;-72
2024/01/21 02:40:02;;;;;;;2.43;0.70;;;;;;;;;;5261740;28;20025;-73
2024/01/21 02:42:33;;;;;;;2.80;0.90;;;;;;;;;;5262499;28;20017;-72
2024/01/21 02:45:04;;;;;;;2.27;1.00;;;;;;;;;;5262627;28;20480;-73
2024/01/21 02:47:35;;;;;;;2.80;1.07;;;;;;;;;;5261712;28;20029;-73
2024/01/21 02:50:07;;;;;;;3.47;1.23;;;;;;;;;;5262450;28;20044;-73
2024/01/21 02:52:38;;;;;;;2.97;0.90;;;;;;;;;;5262321;28;20504;-73
2024/01/21 02:55:09;;;;;;;3.00;0.90;;;;;;;;;;5261720;28;20017;-72
2024/01/21 02:57:40;;;;;;;2.87;1.10;;;;;;;;;;5262287;28;20228;-72
2024/01/21 03:00:12;;;;;;;6.17;1.33;;;;;;;;;;5261786;28;20054;-72
2024/01/21 03:02:43;;;;;;;1.90;0.80;;;;;;;;;;5261297;28;20107;-72
2024/01/21 03:05:14;;;;;;;3.03;1.20;;;;;;;;;;5262319;28;20032;-72
2024/01/21 03:07:45;;;;;;;3.23;1.10;;;;;;;;;;5262130;28;20017;-72
2024/01/21 03:10:16;;;;;;;3.07;1.10;;;;;;;;;;5261312;28;20528;-72
2024/01/21 03:12:48;;;;;;;2.05;1.00;;;;;;;;;;5262005;28;20147;-72
2024/01/21 03:15:19;;;;;;;2.30;0.90;;;;;;;;;;5261016;28;20032;-72
2024/01/21 03:17:50;;;;;;;2.13;0.80;;;;;;;;;;5261948;28;20107;-72
2024/01/21 03:20:21;;;;;;;2.37;0.90;;;;;;;;;;5261582;28;20017;-72
2024/01/21 03:22:52;;;;;;;1.73;0.77;;;;;;;;;;5261460;28;20591;-72
2024/01/21 03:25:23;;;;;;;2.88;1.08;;;;;;;;;;5261461;28;20111;-73
2024/01/21 03:27:55;;;;;;;3.07;1.10;;;;;;;;;;5262009;28;20013;-72
2024/01/21 03:30:26;;;;;;;2.85;1.10;;;;;;;;;;5260743;28;20031;-72
2024/01/21 03:32:57;;;;;;;2.63;1.10;;;;;;;;;;5261931;28;20013;-72
2024/01/21 03:35:28;;;;;;;2.17;0.90;;;;;;;;;;5261578;28;20025;-72
2024/01/21 03:37:59;;;;;;;2.70;1.10;;;;;;;;;;5261337;28;20036;-72
2024/01/21 03:40:31;;;;;;;3.20;1.30;;;;;;;;;;5261705;28;20100;-71
2024/01/21 03:43:02;;;;;;;2.67;1.10;;;;;;;;;;5260801;28;20036;-72
2024/01/21 03:45:34;;;;;;;3.23;0.90;;;;;;;;;;5261372;28;20029;-71
2024/01/21 03:48:05;;;;;;;3.03;0.93;;;;;;;;;;5261429;28;20015;-72
2024/01/21 03:50:37;;;;;;;3.07;0.97;;;;;;;;;;5260502;28;20407;-72
2024/01/21 03:53:08;;;;;;;2.50;0.93;;;;;;;;;;5261163;28;20041;-72
2024/01/21 03:55:39;;;;;;;3.10;0.90;;;;;;;;;;5261474;28;20503;-72
2024/01/21 03:58:10;;;;;;;3.30;1.30;;;;;;;;;;5260527;28;20043;-72
2024/01/21 04:00:42;;;;;;;3.63;1.20;;;;;;;;;;5261186;28;20104;-71
2024/01/21 04:03:13;;;;;;;3.80;1.30;;;;;;;;;;5260928;28;20028;-72
2024/01/21 04:05:44;;;;;;;2.47;0.87;;;;;;;;;;5260571;28;20031;-72
2024/01/21 04:08:15;;;;;;;3.30;1.13;;;;;;;;;;5260818;28;20039;-72
2024/01/21 04:10:47;;;;;;;2.97;0.90;;;;;;;;;;5259718;28;20028;-72
2024/01/21 04:13:18;;;;;;;1.97;0.93;;;;;;;;;;5260034;28;20419;-72
2024/01/21 04:15:49;;;;;;;2.70;1.00;;;;;;;;;;5260821;28;20096;-72
2024/01/21 04:18:21;;;;;;;3.73;0.70;;;;;;;;;;5259965;28;20036;-73
2024/01/21 04:20:52;;;;;;;2.63;0.93;;;;;;;;;;5260923;28;20023;-72
2024/01/21 04:23:23;;;;;;;2.93;1.23;;;;;;;;;;5260541;28;20472;-72
2024/01/21 04:25:54;;;;;;;2.23;0.90;;;;;;;;;;5260183;28;20082;-72
2024/01/21 04:28:25;;;;;;;4.23;1.50;;;;;;;;;;5260561;28;20104;-72
2024/01/21 04:30:56;;;;;;;3.43;1.37;;;;;;;;;;5260922;28;20078;-72
2024/01/21 04:33:28;;;;;;;3.00;1.20;;;;;;;;;;5260083;28;20017;-72
2024/01/21 04:35:59;;;;;;;3.03;1.27;;;;;;;;;;5260845;28;20025;-73
2024/01/21 04:38:30;;;;;;;3.77;1.37;;;;;;;;;;5260780;28;20021;-72
2024/01/21 04:41:01;;;;;;;3.50;1.23;;;;;;;;;;5260047;28;20024;-72
2024/01/21 04:43:32;;;;;;;3.13;1.20;;;;;;;;;;5260630;28;20028;-71
2024/01/21 04:46:03;;;;;;;4.20;1.70;;;;;;;;;;5260504;28;20079;-72
2024/01/21 04:48:35;;;;;;;3.60;1.67;;;;;;;;;;5259820;28;20108;-72
2024/01/21 04:51:06;;;;;;;5.20;2.03;;;;;;;;;;5260178;28;20024;-71
2024/01/21 04:53:40;;;;;;;4.33;1.50;;;;;;;;;;5259921;28;20670;-72
2024/01/21 04:56:17;;;;;;;3.60;1.73;;;;;;;;;;5260613;28;20383;-72
2024/01/21 04:58:49;;;;;;;4.73;1.50;;;;;;;;;;5260422;28;20448;-72
2024/01/21 05:01:21;;;;;;;3.40;1.80;;;;;;;;;;5259661;28;20062;-72
2024/01/21 05:03:52;;;;;;;4.40;1.97;;;;;;;;;;5260661;28;20083;-73
2024/01/21 05:06:24;;;;;;;5.10;2.10;;;;;;;;;;5259902;28;20468;-72
2024/01/21 05:08:55;;;;;;;4.07;1.57;;;;;;;;;;5259883;28;20365;-73
2024/01/21 05:11:26;;;;;;;4.00;2.23;;;;;;;;;;5259861;28;20021;-73
2024/01/21 05:13:57;;;;;;;4.50;2.47;;;;;;;;;;5260322;28;20024;-72
2024/01/21 05:16:29;;;;;;;5.87;2.67;;;;;;;;;;5259509;28;20082;-73
2024/01/21 05:19:00;;;;;;;4.87;2.83;;;;;;;;;;5260343;28;20038;-73
2024/01/21 05:21:31;;;;;;;4.80;2.93;;;;;;;;;;5260034;28;20028;-73
2024/01/21 05:24:03;;;;;;;5.13;3.00;;;;;;;;;;5263762;28;20025;-72
2024/01/21 05:26:41;;;;;;;4.30;2.43;;;;;;;;;;5263921;28;20087;-73
2024/01/21 05:29:12;;;;;;;3.75;1.77;;;;;;;;;;5263358;28;20025;-72
2024/01/21 05:31:43;;;;;;;4.90;2.00;;;;;;;;;;5264064;28;20195;-72
2024/01/21 05:34:14;;;;;;;7.10;3.53;;;;;;;;;;5263829;28;20025;-72
2024/01/21 05:36:46;;;;;;;5.60;2.87;;;;;;;;;;5263074;28;20448;-73
2024/01/21 05:39:17;;;;;;;5.10;2.57;;;;;;;;;;5263714;28;20044;-73
2024/01/21 05:42:01;;;;;;;4.03;1.83;;;;;;;;;;5263754;28;20056;-72
2024/01/21 05:44:32;;;;;;;3.93;2.10;;;;;;;;;;5262798;28;20068;-72
2024/01/21 05:47:03;;;;;;;4.40;2.60;;;;;;;;;;5263669;28;20020;-72
2024/01/21 05:49:35;;;;;;;2.90;1.97;;;;;;;;;;5263019;28;20025;-72
2024/01/21 05:52:06;;;;;;;4.40;1.90;;;;;;;;;;5263351;28;20037;-72
2024/01/21 05:54:37;;;;;;;4.66;2.10;;;;;;;;;;5263657;28;20040;-72
2024/01/21 05:57:09;;;;;;;4.43;2.67;;;;;;;;;;5262735;28;20019;-70
2024/01/21 05:59:40;;;;;;;5.73;2.67;;;;;;;;;;5263357;28;20108;-72
2024/01/21 06:02:11;;;;;;;4.17;2.27;;;;;;;;;;5263593;28;20104;-71
2024/01/21 06:04:42;;;;;;;7.57;2.30;;;;;;;;;;5262676;28;20036;-72
2024/01/21 06:07:14;;;;;;;5.97;2.87;;;;;;;;;;5263357;28;20108;-71
2024/01/21 06:09:46;;;;;;;4.73;2.23;;;;;;;;;;5263331;28;20028;-72
2024/01/21 06:12:17;;;;;;;4.37;2.10;;;;;;;;;;5262471;28;20079;-72
2024/01/21 06:14:48;;;;;;;5.70;2.77;;;;;;;;;;5263404;28;20021;-72
2024/01/21 06:17:19;;;;;;;4.20;2.53;;;;;;;;;;5263439;28;20021;-72
2024/01/21 06:19:51;;;;;;;6.03;2.57;;;;;;;;;;5262448;28;20053;-71
2024/01/21 06:22:22;;;;;;;5.20;2.43;;;;;;;;;;5262832;28;20016;-74
2024/01/21 06:24:53;;;;;;;5.40;2.87;;;;;;;;;;5262336;28;20099;-72
2024/01/21 06:27:24;;;;;;;4.06;2.30;;;;;;;;;;5262609;28;20032;-72
2024/01/21 06:29:55;;;;;;;5.40;3.03;;;;;;;;;;5262961;28;20021;-73
2024/01/21 06:32:26;;;;;;;6.30;2.50;;;;;;;;;;5261878;28;20021;-73
2024/01/21 06:34:58;;;;;;;5.10;2.97;;;;;;;;;;5261859;28;20112;-72
2024/01/21 06:37:29;;;;;;;4.53;2.30;;;;;;;;;;5262638;28;20538;-72
2024/01/21 06:40:00;;;;;;;4.63;2.67;;;;;;;;;;5262172;28;20032;-72
2024/01/21 06:42:31;;;;;;;4.43;2.67;;;;;;;;;;5262873;28;20104;-72
2024/01/21 06:45:03;;;;;;;4.50;2.67;;;;;;;;;;5262505;28;20039;-73
2024/01/21 06:47:34;;;;;;;4.23;2.33;;;;;;;;;;5261623;28;20100;-72
2024/01/21 06:50:05;;;;;;;5.13;2.60;;;;;;;;;;5262641;28;20029;-72
2024/01/21 06:52:37;;;;;;;4.63;2.57;;;;;;;;;;5262484;28;20164;-73
2024/01/21 06:55:08;;;;;;;4.67;2.17;;;;;;;;;;5261650;28;20021;-72
2024/01/21 06:57:39;;;;;;;4.53;2.30;;;;;;;;;;5262437;28;20029;-72
2024/01/21 07:00:11;;;;;;;4.00;2.03;;;;;;;;;;5261533;28;20039;-73
2024/01/21 07:02:42;;;;;;;3.80;2.10;;;;;;;;;;5262251;28;20017;-73
2024/01/21 07:05:13;;;;;;;3.80;2.00;;;;;;;;;;5262101;28;20029;-72
2024/01/21 07:07:44;;;;;;;4.10;2.00;;;;;;;;;;5261435;28;20066;-73
2024/01/21 07:10:16;;;;;;;4.80;2.20;;;;;;;;;;5261993;28;20114;-72
2024/01/21 07:12:47;;;;;;;5.33;2.80;;;;;;;;;;5262018;28;20048;-73
2024/01/21 07:15:18;;;;;;;4.73;2.10;;;;;;;;;;5261489;28;20349;-73
2024/01/21 07:17:49;;;;;;;5.37;2.80;;;;;;;;;;5261705;28;20021;-73
2024/01/21 07:20:21;;;;;;;3.70;1.80;;;;;;;;;;5261634;28;20048;-73
2024/01/21 07:22:52;;;;;;;4.83;2.53;;;;;;;;;;5261238;28;20480;-73
2024/01/21 07:25:23;;;;;;;3.63;2.27;;;;;;;;;;5261187;28;20028;-73
2024/01/21 07:27:54;;;;;;;5.60;2.40;;;;;;;;;;5261947;28;20021;-73
2024/01/21 07:30:25;;;;;;;4.20;1.97;;;;;;;;;;5260533;28;20503;-73
2024/01/21 07:32:57;;;;;;;3.52;2.06;;;;;;;;;;5261562;28;20021;-73
2024/01/21 07:35:28;;;;;;;4.17;2.20;;;;;;;;;;5260481;28;20017;-73
2024/01/21 07:37:59;;;;;;;5.23;2.53;;;;;;;;;;5261381;28;20028;-73
2024/01/21 07:40:31;;;;;;;3.33;1.63;;;;;;;;;;5261345;28;20031;-73
2024/01/21 07:43:02;;;;;;;4.93;2.47;;;;;;;;;;5260500;28;20021;-73
2024/01/21 07:45:34;;;;;;;4.80;2.60;;;;;;;;;;5261151;28;20029;-73
2024/01/21 07:48:05;;;;;;;4.00;2.00;;;;;;;;;;5261290;28;20021;-73
2024/01/21 07:50:36;;;;;;;3.63;1.93;;;;;;;;;;5260759;28;20111;-73
2024/01/21 07:53:07;;;;;;;4.93;2.10;;;;;;;;;;5261243;28;20056;-73
2024/01/21 07:55:39;;;;;;;4.70;2.17;;;;;;;;;;5261328;28;20028;-74
2024/01/21 07:58:10;;;;;;;4.00;2.33;;;;;;;;;;5260477;28;20087;-74
2024/01/21 08:00:42;;;;;;;3.80;1.70;;;;;;;;;;5261035;28;20426;-73
2024/01/21 08:03:13;;;;;;;4.20;1.97;;;;;;;;;;5260638;28;20048;-73
2024/01/21 08:05:45;;;;;;;3.90;2.10;;;;;;;;;;5260912;28;20122;-72
2024/01/21 08:08:16;;;;;;;4.10;2.20;;;;;;;;;;5261022;28;20452;-72
2024/01/21 08:10:47;;;;;;;2.70;1.50;;;;;;;;;;5259607;28;20025;-72
2024/01/21 08:13:18;;;;;;;4.33;1.90;;;;;;;;;;5260219;28;20053;-73
2024/01/21 08:15:49;;;;;;;3.47;1.73;;;;;;;;;;5260919;28;20435;-73
2024/01/21 08:18:21;;;;;;;3.17;1.60;;;;;;;;;;5260065;28;20020;-73
2024/01/21 08:20:52;;;;;;;3.17;1.60;;;;;;;;;;5261190;28;20021;-73
2024/01/21 08:23:24;;;;;;;3.17;1.67;;;;;;;;;;5259871;28;20032;-73
2024/01/21 08:25:56;;;;;;;4.00;2.33;;;;;;;;;;5260200;28;20028;-73
2024/01/21 08:28:27;;;;;;;2.97;1.70;;;;;;;;;;5260434;28;20017;-73
2024/01/21 08:30:58;;;;;;;3.77;1.53;;;;;;;;;;5259998;28;20082;-74
2024/01/21 08:33:29;;;;;;;6.07;1.80;;;;;;;;;;5259892;28;20028;-74
2024/01/21 08:36:00;;;;;;;3.50;1.80;;;;;;;;;;5260514;28;20060;-73
2024/01/21 08:38:32;;;;;;;5.03;1.90;;;;;;;;;;5260180;28;20036;-73
2024/01/21 08:41:03;;;;;;;2.87;1.57;;;;;;;;;;5260226;28;20103;-74
2024/01/21 08:43:34;;;;;;;3.73;2.17;;;;;;;;;;5260599;28;20480;-73
2024/01/21 08:46:05;;;;;;;3.10;1.57;;;;;;;;;;5259674;28;20036;-73
2024/01/21 08:48:36;;;;;;;4.47;1.93;;;;;;;;;;5260820;28;20123;-73
2024/01/21 08:51:08;;;;;;;4.77;1.83;;;;;;;;;;5260297;28;20021;-72
2024/01/21 08:53:39;;;;;;;4.53;2.00;;;;;;;;;;5259987;28;20611;-74
2024/01/21 08:56:10;;;;;;;3.10;1.83;;;;;;;;;;5260589;28;20075;-75
2024/01/21 08:58:41;;;;;;;3.80;1.60;;;;;;;;;;5264552;28;20017;-75
2024/01/21 09:01:12;;;;;;;4.37;1.93;;;;;;;;;;5263715;28;20032;-75
2024/01/21 09:03:44;;;;;;;3.47;1.50;;;;;;;;;;5264582;28;20118;-75
2024/01/21 09:06:15;;;;;;;4.53;2.17;;;;;;;;;;5264077;28;20037;-74
2024/01/21 09:08:51;;;;;;;3.77;1.70;;;;;;;;;;5263685;28;20082;-75
2024/01/21 09:11:26;;;;;;;4.37;1.97;;;;;;;;;;5264030;28;20135;-75
2024/01/21 09:13:57;;;;;;;4.37;2.27;;;;;;;;;;5263821;28;20104;-73
2024/01/21 09:16:29;;;;;;;2.17;1.07;;;;;;;;;;5264144;28;20104;-74
2024/01/21 09:19:00;;;;;;;3.70;1.80;;;;;;;;;;5264146;28;20021;-74
2024/01/21 09:21:34;;;;;;;4.10;1.80;;;;;;;;;;5263308;28;20025;-73
2024/01/21 09:24:06;;;;;;;3.87;1.50;;;;;;;;;;5263576;28;20033;-73
2024/01/21 09:26:37;;;;;;;3.47;1.87;;;;;;;;;;5264024;28;20070;-74
2024/01/21 09:29:09;;;;;;;4.10;2.03;;;;;;;;;;5263551;28;20329;-73
2024/01/21 09:31:40;;;;;;;3.80;2.00;;;;;;;;;;5264013;28;20029;-73
2024/01/21 09:34:11;;;;;;;5.07;2.00;;;;;;;;;;5263781;28;20025;-73
2024/01/21 09:36:42;;;;;;;3.77;2.63;;;;;;;;;;5262970;28;20016;-77
2024/01/21 09:39:13;;;;;;;3.47;1.80;;;;;;;;;;5263727;28;20123;-76
2024/01/21 09:41:49;;;;;;;3.53;2.10;;;;;;;;;;5263295;28;20023;-76
2024/01/21 09:44:24;;;;;;;3.63;2.07;;;;;;;;;;5263562;28;20401;-74
2024/01/21 09:46:57;;;;;;;3.50;1.80;;;;;;;;;;5263963;28;20021;-76
2024/01/21 09:49:31;;;;;;;3.93;2.10;;;;;;;;;;5262985;28;20051;-75
2024/01/21 09:52:04;;;;;;;4.27;1.83;;;;;;;;;;5263336;28;20052;-76
2024/01/21 09:54:35;;;;;;;3.70;2.23;;;;;;;;;;5263649;28;20074;-74
2024/01/21 09:57:07;;;;;;;4.07;1.87;;;;;;;;;;5262847;28;20022;-74
2024/01/21 09:59:39;;;;;;;4.87;2.27;;;;;;;;;;5263466;28;20037;-74
2024/01/21 10:02:15;;;;;;;4.10;2.00;;;;;;;;;;5263720;28;20591;-74
2024/01/21 10:04:46;;;;;;;4.27;2.10;;;;;;;;;;5262519;28;20033;-75
2024/01/21 10:07:17;;;;;;;4.30;2.23;;;;;;;;;;5262847;28;20087;-76
2024/01/21 10:09:57;;;;;;;5.07;2.63;;;;;;;;;;5261634;28;20476;-73
2024/01/21 10:12:29;;;;;;;3.60;1.80;;;;;;;;;;5263543;28;20460;-75
2024/01/21 10:15:00;;;;;;;4.00;2.03;;;;;;;;;;5263260;28;20020;-73
2024/01/21 10:17:31;;;;;;;3.77;2.47;;;;;;;;;;5262518;28;20079;-74
2024/01/21 10:20:02;;;;;;;6.00;2.73;;;;;;;;;;5262861;28;20464;-75
2024/01/21 10:22:33;;;;;;;4.70;2.03;;;;;;;;;;5263021;28;20023;-75
2024/01/21 10:25:08;;;;;;;4.13;2.33;;;;;;;;;;5262247;28;20024;-76
2024/01/21 10:27:40;;;;;;;3.43;2.10;;;;;;;;;;5263037;28;20071;-75
2024/01/21 10:30:12;;;;;;;4.10;2.25;;;;;;;;;;5262979;28;20021;-74
2024/01/21 10:32:43;;;;;;;4.53;2.37;;;;;;;;;;5261912;28;20021;-75
2024/01/21 10:35:14;;;;;;;4.80;2.00;;;;;;;;;;5262965;28;20086;-75
2024/01/21 10:37:46;;;;;;;3.93;1.93;;;;;;;;;;5262755;28;20037;-76
2024/01/21 10:40:18;;;;;;;3.83;2.50;;;;;;;;;;5261933;28;20073;-74
2024/01/21 10:42:53;;;;;;;4.75;2.45;;;;;;;;;;5262257;28;20046;-76
2024/01/21 10:45:28;;;;;;;3.90;2.57;;;;;;;;;;5261079;28;20079;-77
2024/01/21 10:48:01;;;;;;;3.93;2.20;;;;;;;;;;5262201;28;20005;-75
2024/01/21 10:50:32;;;;;;;3.93;2.00;;;;;;;;;;5261788;28;20370;-75
2024/01/21 10:53:05;;;;;;;3.83;2.40;;;;;;;;;;5261095;28;20055;-75
2024/01/21 10:55:38;;;;;;;5.45;3.10;;;;;;;;;;5262019;28;20017;-76
2024/01/21 10:58:10;;;;;;;5.38;2.67;;;;;;;;;;5262148;28;20021;-77
2024/01/21 11:00:41;;;;;;;4.13;2.63;;;;;;;;;;5261471;28;20542;-76
2024/01/21 11:03:30;;;;;;;4.18;2.70;;;;;;;;;;5261930;28;20021;-75
2024/01/21 11:06:01;;;;;;;;;;;;;;;;;;5262237;28;20073;-76
2024/01/21 11:08:34;;;;;;;3.97;2.63;;;;;;;;;;5260547;28;19955;-77
2024/01/21 11:11:05;;;;;;;3.35;1.80;;;;;;;;;;5260547;28;20155;-76
2024/01/21 11:13:47;;;;;;;5.30;2.68;;;;;;;;;;5260454;28;20380;-77
2024/01/21 11:16:30;;;;;;;3.55;2.45;;;;;;;;;;5261526;28;20051;-77
2024/01/21 11:19:06;;;;;;;3.42;1.95;;;;;;;;;;5261506;28;20053;-76
2024/01/21 11:21:40;;;;;;;4.18;1.90;;;;;;;;;;5260937;28;20017;-76
2024/01/21 11:24:16;;;;;;;4.60;2.25;;;;;;;;;;5261096;28;20027;-76
2024/01/21 11:26:47;;;;;;;4.75;2.55;;;;;;;;;;5261598;28;20021;-77
2024/01/21 11:29:31;;;;;;;4.45;2.20;;;;;;;;;;5260724;28;20414;-77
2024/01/21 11:32:04;;;;;;;4.18;2.45;;;;;;;;;;5261637;28;20092;-75
2024/01/21 11:34:39;;;;;;;2.92;2.03;;;;;;;;;;5260857;28;20045;-77
2024/01/21 11:37:13;;;;;;;3.53;2.30;;;;;;;;;;5261757;28;20419;-75
2024/01/21 11:39:45;;;;;;;6.60;2.70;;;;;;;;;;5261561;28;20027;-74
2024/01/21 11:42:16;;;;;;;4.57;2.40;;;;;;;;;;5260686;28;20021;-77
2024/01/21 11:44:47;;;;;;;5.90;2.28;;;;;;;;;;5261145;28;20483;-77
2024/01/21 11:47:19;;;;;;;5.03;2.60;;;;;;;;;;5261328;28;20434;-78
2024/01/21 11:49:50;;;;;;;3.97;1.92;;;;;;;;;;5259695;28;20025;-76
2024/01/21 11:52:21;;;;;;;5.22;2.78;;;;;;;;;;5260969;28;20048;-76
2024/01/21 11:54:53;;;;;;;5.20;2.35;;;;;;;;;;5261696;28;20067;-76
2024/01/21 11:57:24;;;;;;;3.80;2.20;;;;;;;;;;5260290;28;20376;-76
2024/01/21 11:59:55;;;;;;;3.67;2.45;;;;;;;;;;5261332;28;20049;-77
2024/01/21 12:02:26;;;;;;;4.28;2.63;;;;;;;;;;5260299;28;20021;-78
2024/01/21 12:04:58;;;;;;;3.95;2.50;;;;;;;;;;5261313;28;20033;-78
2024/01/21 12:07:29;;;;;;;4.15;2.13;;;;;;;;;;5261504;28;20017;-78
2024/01/21 12:10:01;;;;;;;4.68;2.40;;;;;;;;;;5260458;28;20039;-77
2024/01/21 12:12:32;;;;;;;3.38;2.25;;;;;;;;;;5261307;28;20021;-77
2024/01/21 12:15:05;;;;;;;3.90;2.20;;;;;;;;;;5261315;28;20036;-78
2024/01/21 12:17:37;;;;;;;4.32;2.13;;;;;;;;;;5260476;28;20078;-77
2024/01/21 12:20:09;;;;;;;3.47;2.05;;;;;;;;;;5261446;28;20407;-77
2024/01/21 12:22:42;;;;;;;3.58;2.08;;;;;;;;;;5261460;28;20134;-77
2024/01/21 12:25:13;;;;;;;3.67;2.53;;;;;;;;;;5260737;28;20047;-77
2024/01/21 12:27:45;;;;;;;4.43;2.35;;;;;;;;;;5261379;28;20479;-76
2024/01/21 12:30:16;;;;;;;3.92;2.45;;;;;;;;;;5262876;28;20029;-78
2024/01/21 12:32:47;;;;;;;3.08;2.00;;;;;;;;;;5260163;28;20017;-78
2024/01/21 12:35:19;;;;;;;4.82;2.55;;;;;;;;;;5260994;28;20028;-79
2024/01/21 12:37:50;;;;;;;4.13;2.60;;;;;;;;;;5259963;28;20017;-79
2024/01/21 12:40:22;;;;;;;3.65;2.20;;;;;;;;;;5260409;28;20029;-77
2024/01/21 12:42:54;;;;;;;4.43;1.70;;;;;;;;;;5260829;28;20066;-78
2024/01/21 12:45:25;;;;;;;4.32;1.90;;;;;;;;;;5259742;28;20033;-78
2024/01/21 12:47:56;;;;;;;4.10;2.28;;;;;;;;;;5260699;28;20457;-77
2024/01/21 12:50:27;;;;;;;5.05;2.08;;;;;;;;;;5260372;28;20232;-78
2024/01/21 12:52:59;;;;;;;3.20;2.03;;;;;;;;;;5259915;28;20072;-79
2024/01/21 12:55:30;;;;;;;3.50;2.00;;;;;;;;;;5260965;28;20100;-79
2024/01/21 12:58:02;;;;;;;4.78;1.90;;;;;;;;;;5260891;28;20032;-76
2024/01/21 13:00:33;;;;;;;4.18;2.15;;;;;;;;;;5259317;28;20025;-76
2024/01/21 13:03:04;;;;;;;3.75;1.90;;;;;;;;;;5260654;28;20017;-75
2024/01/21 13:05:35;;;;;;;4.82;2.20;;;;;;;;;;5260165;28;20036;-76
2024/01/21 13:08:08;;;;;;;3.15;2.08;;;;;;;;;;5259777;28;20013;-80
2024/01/21 13:10:39;;;;;;;3.83;2.13;;;;;;;;;;5260533;28;20029;-78
2024/01/21 13:13:11;;;;;;;3.42;2.03;;;;;;;;;;5259562;28;20040;-77
2024/01/21 13:15:42;;;;;;;5.03;2.50;;;;;;;;;;5260430;28;20107;-77
2024/01/21 13:18:13;;;;;;;3.58;2.10;;;;;;;;;;5260370;28;20100;-78
2024/01/21 13:20:44;;;;;;;5.18;2.42;;;;;;;;;;5259637;28;20146;-77
2024/01/21 13:23:15;;;;;;;4.07;1.83;;;;;;;;;;5259993;28;20033;-77
2024/01/21 13:25:47;;;;;;;3.28;1.85;;;;;;;;;;5260163;28;20033;-78
2024/01/21 13:28:28;;;;;;;3.33;2.03;;;;;;;;;;5259861;28;20013;-76
2024/01/21 13:30:59;;;;;;;3.38;2.40;;;;;;;;;;5260297;28;20104;-78
2024/01/21 13:33:30;;;;;;;6.85;2.25;;;;;;;;;;5260189;28;20147;-75
2024/01/21 13:36:01;;;;;;;4.13;2.08;;;;;;;;;;5259181;28;20329;-76
2024/01/21 13:38:33;;;;;;;3.20;2.17;;;;;;;;;;5259887;28;20029;-76
2024/01/21 13:41:05;;;;;;;4.85;2.88;;;;;;;;;;5259590;28;20033;-75
2024/01/21 13:43:36;;;;;;;4.22;2.85;;;;;;;;;;5261881;28;20092;-76
2024/01/21 13:46:07;;;;;;;5.22;3.88;;;;;;;;;;5263973;28;20024;-77
2024/01/21 13:48:38;;;;;;;5.22;3.03;;;;;;;;;;5264070;28;20005;-78
2024/01/21 13:51:10;;;;;;;6.93;4.18;;;;;;;;;;5264173;28;20028;-78
2024/01/21 13:53:41;;;;;;;5.10;3.08;;;;;;;;;;5264297;28;20116;-79
2024/01/21 13:56:14;;;;;;;5.57;2.83;;;;;;;;;;5264119;28;20017;-77
2024/01/21 13:58:45;;;;;;;4.90;3.00;;;;;;;;;;5265231;28;20017;-78
2024/01/21 14:01:18;;;;;;;4.10;2.70;;;;;;;;;;5264571;28;20070;-78
2024/01/21 14:03:49;;;;;;;4.00;2.47;;;;;;;;;;5265431;28;20368;-79
2024/01/21 14:06:20;;;;;;;6.85;2.20;;;;;;;;;;5266037;28;20024;-78
2024/01/21 14:08:51;;;;;;;5.70;2.72;;;;;;;;;;5265719;28;20082;-76
2024/01/21 14:11:22;;;;;;;4.35;2.53;;;;;;;;;;5263652;28;20412;-78
2024/01/21 14:13:53;;;;;;;4.57;2.35;;;;;;;;;;5260926;28;20479;-78
2024/01/21 14:16:25;;;;;;;3.45;2.17;;;;;;;;;;5262050;28;20071;-77
2024/01/21 14:18:56;;;;;;;5.70;2.85;;;;;;;;;;5263003;28;20108;-78
2024/01/21 14:21:27;;;;;;;5.40;2.60;;;;;;;;;;5263192;28;20021;-78
2024/01/21 14:23:59;;;;;;;4.47;2.53;;;;;;;;;;5262526;28;20032;-79
2024/01/21 14:26:34;;;;;;;5.45;2.33;;;;;;;;;;5262790;28;20045;-78
2024/01/21 14:29:12;;;;;;;5.13;2.60;;;;;;;;;;5262634;28;20020;-76
2024/01/21 14:31:43;;;;;;;4.67;2.37;;;;;;;;;;5262448;28;20527;-75
2024/01/21 14:34:14;;;;;;;5.07;2.33;;;;;;;;;;5262266;28;20354;-77
2024/01/21 14:36:45;;;;;;;5.03;2.92;;;;;;;;;;5262509;28;20040;-77
2024/01/21 14:39:17;;;;;;;4.65;2.90;;;;;;;;;;5261631;28;20051;-77
2024/01/21 14:41:48;;;;;;;3.65;2.28;;;;;;;;;;5262207;28;20427;-77
2024/01/21 14:44:19;;;;;;;5.47;3.13;;;;;;;;;;5261515;28;20028;-77
2024/01/21 14:46:50;;;;;;;5.38;2.72;;;;;;;;;;5262600;28;20017;-77
2024/01/21 14:49:21;;;;;;;5.80;3.22;;;;;;;;;;5262307;28;20071;-78
2024/01/21 14:51:52;;;;;;;6.32;3.08;;;;;;;;;;5261852;28;20045;-77
2024/01/21 14:54:24;;;;;;;5.88;2.65;;;;;;;;;;5261076;28;20078;-77
2024/01/21 14:56:55;;;;;;;5.20;2.45;;;;;;;;;;5262323;28;20020;-79
2024/01/21 14:59:27;;;;;;;4.10;2.88;;;;;;;;;;5261248;28;20044;-78
2024/01/21 15:02:02;;;;;;;4.63;3.05;;;;;;;;;;5262173;28;20024;-76
2024/01/21 15:04:33;;;;;;;5.90;2.75;;;;;;;;;;5261962;28;20029;-76
2024/01/21 15:07:04;;;;;;;6.50;2.88;;;;;;;;;;5261680;28;20028;-78
2024/01/21 15:09:36;;;;;;;6.15;2.40;;;;;;;;;;5261955;28;20021;-77